sensor_id;sensor_type;location;lat;lon;timestamp;P1;durP1;ratioP1;P2;durP2;ratioP2
75639;SDS011;64233;51.486;6.332;2023-03-04T00:01:59;7.68;;;2.25;;
75639;SDS011;64233;51.486;6.332;2023-03-04T00:04:24;6.18;;;1.83;;
75639;SDS011;64233;51.486;6.332;2023-03-04T00:06:50;19.45;;;3.25;;
75639;SDS011;64233;51.486;6.332;2023-03-04T00:09:15;6.13;;;1.80;;
75639;SDS011;64233;51.486;6.332;2023-03-04T00:11:47;6.60;;;1.73;;
75639;SDS011;64233;51.486;6.332;2023-03-04T00:14:20;5.97;;;1.73;;
75639;SDS011;64233;51.486;6.332;2023-03-04T00:16:45;6.65;;;1.63;;
75639;SDS011;64233;51.486;6.332;2023-03-04T00:19:10;13.43;;;2.28;;
75639;SDS011;64233;51.486;6.332;2023-03-04T00:21:36;6.45;;;1.80;;
75639;SDS011;64233;51.486;6.332;2023-03-04T00:24:01;5.95;;;1.67;;
75639;SDS011;64233;51.486;6.332;2023-03-04T00:26:26;15.40;;;1.90;;
75639;SDS011;64233;51.486;6.332;2023-03-04T00:28:51;4.38;;;1.90;;
75639;SDS011;64233;51.486;6.332;2023-03-04T00:31:17;8.20;;;2.63;;
75639;SDS011;64233;51.486;6.332;2023-03-04T00:33:42;7.40;;;1.88;;
75639;SDS011;64233;51.486;6.332;2023-03-04T00:36:08;10.23;;;1.90;;
75639;SDS011;64233;51.486;6.332;2023-03-04T00:38:34;13.63;;;2.20;;
75639;SDS011;64233;51.486;6.332;2023-03-04T00:40:59;5.15;;;1.65;;
75639;SDS011;64233;51.486;6.332;2023-03-04T00:43:24;3.30;;;1.35;;
75639;SDS011;64233;51.486;6.332;2023-03-04T00:45:50;7.45;;;2.08;;
75639;SDS011;64233;51.486;6.332;2023-03-04T00:48:15;9.75;;;2.13;;
75639;SDS011;64233;51.486;6.332;2023-03-04T00:50:40;11.93;;;2.78;;
75639;SDS011;64233;51.486;6.332;2023-03-04T00:53:06;5.13;;;2.03;;
75639;SDS011;64233;51.486;6.332;2023-03-04T00:55:31;8.43;;;1.65;;
75639;SDS011;64233;51.486;6.332;2023-03-04T00:57:57;11.65;;;1.85;;
75639;SDS011;64233;51.486;6.332;2023-03-04T01:00:22;9.02;;;1.98;;
75639;SDS011;64233;51.486;6.332;2023-03-04T01:02:47;14.00;;;2.10;;
75639;SDS011;64233;51.486;6.332;2023-03-04T01:05:13;6.43;;;1.90;;
75639;SDS011;64233;51.486;6.332;2023-03-04T01:07:38;14.98;;;2.55;;
75639;SDS011;64233;51.486;6.332;2023-03-04T01:10:05;7.03;;;2.10;;
75639;SDS011;64233;51.486;6.332;2023-03-04T01:12:31;10.48;;;1.92;;
75639;SDS011;64233;51.486;6.332;2023-03-04T01:14:57;7.80;;;2.38;;
75639;SDS011;64233;51.486;6.332;2023-03-04T01:17:22;5.65;;;1.35;;
75639;SDS011;64233;51.486;6.332;2023-03-04T01:19:48;14.88;;;1.90;;
75639;SDS011;64233;51.486;6.332;2023-03-04T01:22:13;9.65;;;1.65;;
75639;SDS011;64233;51.486;6.332;2023-03-04T01:24:41;10.25;;;2.13;;
75639;SDS011;64233;51.486;6.332;2023-03-04T01:27:06;9.35;;;1.83;;
75639;SDS011;64233;51.486;6.332;2023-03-04T01:29:32;5.32;;;1.83;;
75639;SDS011;64233;51.486;6.332;2023-03-04T01:31:57;7.45;;;2.22;;
75639;SDS011;64233;51.486;6.332;2023-03-04T01:34:22;8.95;;;2.72;;
75639;SDS011;64233;51.486;6.332;2023-03-04T01:36:48;5.72;;;2.13;;
75639;SDS011;64233;51.486;6.332;2023-03-04T01:39:13;4.63;;;1.83;;
75639;SDS011;64233;51.486;6.332;2023-03-04T01:41:38;10.30;;;2.03;;
75639;SDS011;64233;51.486;6.332;2023-03-04T01:44:03;10.73;;;2.50;;
75639;SDS011;64233;51.486;6.332;2023-03-04T01:46:30;13.38;;;1.73;;
75639;SDS011;64233;51.486;6.332;2023-03-04T01:48:55;5.07;;;1.95;;
75639;SDS011;64233;51.486;6.332;2023-03-04T01:51:21;8.63;;;2.53;;
75639;SDS011;64233;51.486;6.332;2023-03-04T01:53:48;11.48;;;2.30;;
75639;SDS011;64233;51.486;6.332;2023-03-04T01:56:36;8.00;;;1.88;;
75639;SDS011;64233;51.486;6.332;2023-03-04T01:59:06;4.82;;;1.63;;
75639;SDS011;64233;51.486;6.332;2023-03-04T02:01:45;7.25;;;1.70;;
75639;SDS011;64233;51.486;6.332;2023-03-04T02:04:12;11.02;;;2.50;;
75639;SDS011;64233;51.486;6.332;2023-03-04T02:06:39;12.25;;;2.38;;
75639;SDS011;64233;51.486;6.332;2023-03-04T02:09:05;13.27;;;2.15;;
75639;SDS011;64233;51.486;6.332;2023-03-04T02:11:31;10.77;;;2.20;;
75639;SDS011;64233;51.486;6.332;2023-03-04T02:13:58;5.88;;;2.05;;
75639;SDS011;64233;51.486;6.332;2023-03-04T02:16:24;13.07;;;1.90;;
75639;SDS011;64233;51.486;6.332;2023-03-04T02:18:49;8.75;;;2.00;;
75639;SDS011;64233;51.486;6.332;2023-03-04T02:21:21;6.55;;;1.95;;
75639;SDS011;64233;51.486;6.332;2023-03-04T02:24:13;10.40;;;1.95;;
75639;SDS011;64233;51.486;6.332;2023-03-04T02:26:41;4.72;;;2.05;;
75639;SDS011;64233;51.486;6.332;2023-03-04T02:29:10;6.35;;;2.00;;
75639;SDS011;64233;51.486;6.332;2023-03-04T02:31:38;7.28;;;2.28;;
75639;SDS011;64233;51.486;6.332;2023-03-04T02:36:45;5.28;;;2.17;;
75639;SDS011;64233;51.486;6.332;2023-03-04T02:41:44;11.75;;;2.55;;
75639;SDS011;64233;51.486;6.332;2023-03-04T02:44:17;6.60;;;2.00;;
75639;SDS011;64233;51.486;6.332;2023-03-04T02:46:47;4.90;;;1.60;;
75639;SDS011;64233;51.486;6.332;2023-03-04T02:49:14;7.20;;;1.65;;
75639;SDS011;64233;51.486;6.332;2023-03-04T02:51:40;2.67;;;1.58;;
75639;SDS011;64233;51.486;6.332;2023-03-04T02:54:13;9.07;;;1.52;;
75639;SDS011;64233;51.486;6.332;2023-03-04T02:56:47;4.20;;;1.40;;
75639;SDS011;64233;51.486;6.332;2023-03-04T02:59:16;13.63;;;2.55;;
75639;SDS011;64233;51.486;6.332;2023-03-04T03:01:42;4.85;;;1.98;;
75639;SDS011;64233;51.486;6.332;2023-03-04T03:04:08;7.25;;;1.77;;
75639;SDS011;64233;51.486;6.332;2023-03-04T03:06:34;6.60;;;2.40;;
75639;SDS011;64233;51.486;6.332;2023-03-04T03:08:59;13.57;;;2.60;;
75639;SDS011;64233;51.486;6.332;2023-03-04T03:11:25;9.45;;;2.05;;
75639;SDS011;64233;51.486;6.332;2023-03-04T03:13:50;5.72;;;1.98;;
75639;SDS011;64233;51.486;6.332;2023-03-04T03:16:15;7.55;;;2.97;;
75639;SDS011;64233;51.486;6.332;2023-03-04T03:18:40;3.63;;;1.77;;
75639;SDS011;64233;51.486;6.332;2023-03-04T03:21:06;8.52;;;2.08;;
75639;SDS011;64233;51.486;6.332;2023-03-04T03:23:31;11.23;;;2.35;;
75639;SDS011;64233;51.486;6.332;2023-03-04T03:25:57;13.40;;;2.42;;
75639;SDS011;64233;51.486;6.332;2023-03-04T03:28:23;8.50;;;1.95;;
75639;SDS011;64233;51.486;6.332;2023-03-04T03:30:48;8.63;;;1.65;;
75639;SDS011;64233;51.486;6.332;2023-03-04T03:33:13;4.95;;;2.42;;
75639;SDS011;64233;51.486;6.332;2023-03-04T03:35:39;5.20;;;1.88;;
75639;SDS011;64233;51.486;6.332;2023-03-04T03:38:04;7.40;;;1.88;;
75639;SDS011;64233;51.486;6.332;2023-03-04T03:40:29;7.03;;;2.33;;
75639;SDS011;64233;51.486;6.332;2023-03-04T03:42:55;4.57;;;1.80;;
75639;SDS011;64233;51.486;6.332;2023-03-04T03:45:20;2.08;;;1.02;;
75639;SDS011;64233;51.486;6.332;2023-03-04T03:47:45;6.05;;;1.52;;
75639;SDS011;64233;51.486;6.332;2023-03-04T03:50:11;0.50;;;0.50;;
75639;SDS011;64233;51.486;6.332;2023-03-04T03:52:36;2.85;;;1.13;;
75639;SDS011;64233;51.486;6.332;2023-03-04T03:55:02;10.57;;;1.73;;
75639;SDS011;64233;51.486;6.332;2023-03-04T03:57:27;6.65;;;2.08;;
75639;SDS011;64233;51.486;6.332;2023-03-04T03:59:53;10.05;;;2.30;;
75639;SDS011;64233;51.486;6.332;2023-03-04T04:02:18;5.85;;;1.35;;
75639;SDS011;64233;51.486;6.332;2023-03-04T04:04:44;7.68;;;1.85;;
75639;SDS011;64233;51.486;6.332;2023-03-04T04:07:09;1.75;;;1.33;;
75639;SDS011;64233;51.486;6.332;2023-03-04T04:09:34;6.80;;;2.30;;
75639;SDS011;64233;51.486;6.332;2023-03-04T04:11:59;2.38;;;1.30;;
75639;SDS011;64233;51.486;6.332;2023-03-04T04:14:25;7.63;;;1.73;;
75639;SDS011;64233;51.486;6.332;2023-03-04T04:16:50;8.35;;;1.73;;
75639;SDS011;64233;51.486;6.332;2023-03-04T04:19:16;1.98;;;1.35;;
75639;SDS011;64233;51.486;6.332;2023-03-04T04:21:43;6.47;;;2.20;;
75639;SDS011;64233;51.486;6.332;2023-03-04T04:24:08;2.80;;;1.05;;
75639;SDS011;64233;51.486;6.332;2023-03-04T04:26:34;7.20;;;1.77;;
75639;SDS011;64233;51.486;6.332;2023-03-04T04:28:59;9.52;;;1.50;;
75639;SDS011;64233;51.486;6.332;2023-03-04T04:31:24;6.10;;;1.52;;
75639;SDS011;64233;51.486;6.332;2023-03-04T04:33:49;5.35;;;1.85;;
75639;SDS011;64233;51.486;6.332;2023-03-04T04:36:15;7.20;;;2.00;;
75639;SDS011;64233;51.486;6.332;2023-03-04T04:38:40;5.20;;;1.50;;
75639;SDS011;64233;51.486;6.332;2023-03-04T04:41:10;10.98;;;1.83;;
75639;SDS011;64233;51.486;6.332;2023-03-04T04:43:43;8.15;;;2.33;;
75639;SDS011;64233;51.486;6.332;2023-03-04T04:46:08;3.15;;;1.65;;
75639;SDS011;64233;51.486;6.332;2023-03-04T04:48:34;3.67;;;1.67;;
75639;SDS011;64233;51.486;6.332;2023-03-04T04:50:59;16.67;;;3.05;;
75639;SDS011;64233;51.486;6.332;2023-03-04T04:53:24;2.85;;;1.42;;
75639;SDS011;64233;51.486;6.332;2023-03-04T04:55:49;5.53;;;1.52;;
75639;SDS011;64233;51.486;6.332;2023-03-04T04:58:15;0.98;;;0.40;;
75639;SDS011;64233;51.486;6.332;2023-03-04T05:00:40;5.05;;;1.40;;
75639;SDS011;64233;51.486;6.332;2023-03-04T05:03:05;9.57;;;2.15;;
75639;SDS011;64233;51.486;6.332;2023-03-04T05:05:30;15.48;;;2.22;;
75639;SDS011;64233;51.486;6.332;2023-03-04T05:07:56;10.48;;;2.20;;
75639;SDS011;64233;51.486;6.332;2023-03-04T05:10:21;2.63;;;1.33;;
75639;SDS011;64233;51.486;6.332;2023-03-04T05:12:46;8.93;;;1.40;;
75639;SDS011;64233;51.486;6.332;2023-03-04T05:15:11;2.10;;;1.30;;
75639;SDS011;64233;51.486;6.332;2023-03-04T05:17:37;6.85;;;1.92;;
75639;SDS011;64233;51.486;6.332;2023-03-04T05:20:02;7.40;;;1.73;;
75639;SDS011;64233;51.486;6.332;2023-03-04T05:22:28;2.75;;;1.45;;
75639;SDS011;64233;51.486;6.332;2023-03-04T05:24:53;1.65;;;1.33;;
75639;SDS011;64233;51.486;6.332;2023-03-04T05:27:19;2.35;;;1.35;;
75639;SDS011;64233;51.486;6.332;2023-03-04T05:29:44;2.50;;;1.35;;
75639;SDS011;64233;51.486;6.332;2023-03-04T05:32:10;8.80;;;2.08;;
75639;SDS011;64233;51.486;6.332;2023-03-04T05:34:36;4.45;;;1.38;;
75639;SDS011;64233;51.486;6.332;2023-03-04T05:37:01;2.80;;;1.25;;
75639;SDS011;64233;51.486;6.332;2023-03-04T05:39:26;9.90;;;1.70;;
75639;SDS011;64233;51.486;6.332;2023-03-04T05:41:52;18.83;;;2.30;;
75639;SDS011;64233;51.486;6.332;2023-03-04T05:44:17;4.85;;;1.88;;
75639;SDS011;64233;51.486;6.332;2023-03-04T05:46:42;5.40;;;1.90;;
75639;SDS011;64233;51.486;6.332;2023-03-04T05:49:08;5.05;;;1.65;;
75639;SDS011;64233;51.486;6.332;2023-03-04T05:51:33;3.67;;;1.50;;
75639;SDS011;64233;51.486;6.332;2023-03-04T05:53:58;15.15;;;1.80;;
75639;SDS011;64233;51.486;6.332;2023-03-04T05:56:23;3.05;;;1.13;;
75639;SDS011;64233;51.486;6.332;2023-03-04T05:58:49;6.15;;;1.50;;
75639;SDS011;64233;51.486;6.332;2023-03-04T06:01:14;2.30;;;1.40;;
75639;SDS011;64233;51.486;6.332;2023-03-04T06:03:40;2.63;;;1.23;;
75639;SDS011;64233;51.486;6.332;2023-03-04T06:06:07;8.77;;;1.20;;
75639;SDS011;64233;51.486;6.332;2023-03-04T06:08:32;8.07;;;1.35;;
75639;SDS011;64233;51.486;6.332;2023-03-04T06:10:58;6.43;;;1.52;;
75639;SDS011;64233;51.486;6.332;2023-03-04T06:13:23;10.77;;;2.10;;
75639;SDS011;64233;51.486;6.332;2023-03-04T06:15:56;6.63;;;1.48;;
75639;SDS011;64233;51.486;6.332;2023-03-04T06:18:29;3.33;;;1.27;;
75639;SDS011;64233;51.486;6.332;2023-03-04T06:20:58;9.48;;;1.85;;
75639;SDS011;64233;51.486;6.332;2023-03-04T06:23:25;2.08;;;1.13;;
75639;SDS011;64233;51.486;6.332;2023-03-04T06:25:52;9.02;;;1.50;;
75639;SDS011;64233;51.486;6.332;2023-03-04T06:28:18;3.00;;;1.45;;
75639;SDS011;64233;51.486;6.332;2023-03-04T06:30:43;2.70;;;1.10;;
75639;SDS011;64233;51.486;6.332;2023-03-04T06:33:08;10.07;;;1.27;;
75639;SDS011;64233;51.486;6.332;2023-03-04T06:35:34;2.53;;;0.90;;
75639;SDS011;64233;51.486;6.332;2023-03-04T06:37:59;1.48;;;1.00;;
75639;SDS011;64233;51.486;6.332;2023-03-04T06:40:24;7.82;;;1.55;;
75639;SDS011;64233;51.486;6.332;2023-03-04T06:42:49;6.20;;;1.73;;
75639;SDS011;64233;51.486;6.332;2023-03-04T06:45:15;1.73;;;0.93;;
75639;SDS011;64233;51.486;6.332;2023-03-04T06:47:40;7.07;;;1.63;;
75639;SDS011;64233;51.486;6.332;2023-03-04T06:50:05;1.75;;;1.10;;
75639;SDS011;64233;51.486;6.332;2023-03-04T06:52:31;1.27;;;1.13;;
75639;SDS011;64233;51.486;6.332;2023-03-04T06:54:56;2.47;;;1.35;;
75639;SDS011;64233;51.486;6.332;2023-03-04T06:57:22;5.55;;;1.20;;
75639;SDS011;64233;51.486;6.332;2023-03-04T06:59:47;4.18;;;1.52;;
75639;SDS011;64233;51.486;6.332;2023-03-04T07:02:12;4.60;;;1.27;;
75639;SDS011;64233;51.486;6.332;2023-03-04T07:04:38;5.00;;;1.30;;
75639;SDS011;64233;51.486;6.332;2023-03-04T07:07:03;2.53;;;1.30;;
75639;SDS011;64233;51.486;6.332;2023-03-04T07:09:29;2.00;;;1.05;;
75639;SDS011;64233;51.486;6.332;2023-03-04T07:11:54;11.80;;;1.65;;
75639;SDS011;64233;51.486;6.332;2023-03-04T07:14:20;3.53;;;1.23;;
75639;SDS011;64233;51.486;6.332;2023-03-04T07:16:45;4.10;;;1.23;;
75639;SDS011;64233;51.486;6.332;2023-03-04T07:19:10;14.95;;;1.75;;
75639;SDS011;64233;51.486;6.332;2023-03-04T07:21:35;4.90;;;0.80;;
75639;SDS011;64233;51.486;6.332;2023-03-04T07:24:01;2.92;;;0.88;;
75639;SDS011;64233;51.486;6.332;2023-03-04T07:26:27;3.60;;;0.80;;
75639;SDS011;64233;51.486;6.332;2023-03-04T07:28:53;4.00;;;0.88;;
75639;SDS011;64233;51.486;6.332;2023-03-04T07:31:25;4.70;;;1.20;;
75639;SDS011;64233;51.486;6.332;2023-03-04T07:33:58;4.10;;;1.20;;
75639;SDS011;64233;51.486;6.332;2023-03-04T07:36:25;7.72;;;1.27;;
75639;SDS011;64233;51.486;6.332;2023-03-04T07:38:51;2.53;;;0.70;;
75639;SDS011;64233;51.486;6.332;2023-03-04T07:41:19;4.75;;;1.48;;
75639;SDS011;64233;51.486;6.332;2023-03-04T07:43:45;0.70;;;0.70;;
75639;SDS011;64233;51.486;6.332;2023-03-04T07:46:11;4.10;;;0.93;;
75639;SDS011;64233;51.486;6.332;2023-03-04T07:48:36;12.27;;;1.15;;
75639;SDS011;64233;51.486;6.332;2023-03-04T07:51:03;3.38;;;1.40;;
75639;SDS011;64233;51.486;6.332;2023-03-04T07:53:29;9.10;;;1.08;;
75639;SDS011;64233;51.486;6.332;2023-03-04T07:55:55;11.63;;;1.30;;
75639;SDS011;64233;51.486;6.332;2023-03-04T07:58:20;3.08;;;0.75;;
75639;SDS011;64233;51.486;6.332;2023-03-04T08:00:45;6.72;;;1.58;;
75639;SDS011;64233;51.486;6.332;2023-03-04T08:03:10;5.43;;;1.17;;
75639;SDS011;64233;51.486;6.332;2023-03-04T08:05:38;4.50;;;1.55;;
75639;SDS011;64233;51.486;6.332;2023-03-04T08:08:03;9.82;;;1.23;;
75639;SDS011;64233;51.486;6.332;2023-03-04T08:10:29;1.27;;;1.17;;
75639;SDS011;64233;51.486;6.332;2023-03-04T08:12:54;4.78;;;1.25;;
75639;SDS011;64233;51.486;6.332;2023-03-04T08:15:19;2.80;;;1.02;;
75639;SDS011;64233;51.486;6.332;2023-03-04T08:17:44;6.85;;;1.30;;
75639;SDS011;64233;51.486;6.332;2023-03-04T08:20:10;3.63;;;1.05;;
75639;SDS011;64233;51.486;6.332;2023-03-04T08:22:36;6.15;;;1.50;;
75639;SDS011;64233;51.486;6.332;2023-03-04T08:25:01;15.52;;;1.90;;
75639;SDS011;64233;51.486;6.332;2023-03-04T08:27:26;9.00;;;1.25;;
75639;SDS011;64233;51.486;6.332;2023-03-04T08:29:51;5.03;;;1.55;;
75639;SDS011;64233;51.486;6.332;2023-03-04T08:32:17;1.00;;;0.90;;
75639;SDS011;64233;51.486;6.332;2023-03-04T08:34:42;1.73;;;1.13;;
75639;SDS011;64233;51.486;6.332;2023-03-04T08:37:08;5.70;;;1.67;;
75639;SDS011;64233;51.486;6.332;2023-03-04T08:39:33;3.13;;;1.60;;
75639;SDS011;64233;51.486;6.332;2023-03-04T08:42:00;2.03;;;0.77;;
75639;SDS011;64233;51.486;6.332;2023-03-04T08:44:25;5.10;;;1.15;;
75639;SDS011;64233;51.486;6.332;2023-03-04T08:46:50;2.85;;;1.30;;
75639;SDS011;64233;51.486;6.332;2023-03-04T08:49:16;2.53;;;0.93;;
75639;SDS011;64233;51.486;6.332;2023-03-04T08:51:41;4.13;;;1.05;;
75639;SDS011;64233;51.486;6.332;2023-03-04T08:54:07;2.17;;;1.02;;
75639;SDS011;64233;51.486;6.332;2023-03-04T08:56:32;9.07;;;1.08;;
75639;SDS011;64233;51.486;6.332;2023-03-04T08:58:57;5.97;;;1.00;;
75639;SDS011;64233;51.486;6.332;2023-03-04T09:01:23;6.53;;;1.05;;
75639;SDS011;64233;51.486;6.332;2023-03-04T09:03:48;0.65;;;0.45;;
75639;SDS011;64233;51.486;6.332;2023-03-04T09:06:14;5.88;;;1.00;;
75639;SDS011;64233;51.486;6.332;2023-03-04T09:08:41;2.85;;;0.70;;
75639;SDS011;64233;51.486;6.332;2023-03-04T09:11:07;4.18;;;1.17;;
75639;SDS011;64233;51.486;6.332;2023-03-04T09:13:32;1.83;;;1.00;;
75639;SDS011;64233;51.486;6.332;2023-03-04T09:15:58;4.15;;;1.20;;
75639;SDS011;64233;51.486;6.332;2023-03-04T09:18:23;5.60;;;1.15;;
75639;SDS011;64233;51.486;6.332;2023-03-04T09:20:50;8.85;;;1.00;;
75639;SDS011;64233;51.486;6.332;2023-03-04T09:23:16;2.75;;;1.15;;
75639;SDS011;64233;51.486;6.332;2023-03-04T09:25:42;2.92;;;1.00;;
75639;SDS011;64233;51.486;6.332;2023-03-04T09:28:09;1.30;;;0.73;;
75639;SDS011;64233;51.486;6.332;2023-03-04T09:30:35;1.20;;;1.10;;
75639;SDS011;64233;51.486;6.332;2023-03-04T09:33:00;8.52;;;1.70;;
75639;SDS011;64233;51.486;6.332;2023-03-04T09:35:26;6.07;;;1.75;;
75639;SDS011;64233;51.486;6.332;2023-03-04T09:37:53;3.35;;;1.20;;
75639;SDS011;64233;51.486;6.332;2023-03-04T09:40:20;2.80;;;1.55;;
75639;SDS011;64233;51.486;6.332;2023-03-04T09:42:49;7.90;;;1.05;;
75639;SDS011;64233;51.486;6.332;2023-03-04T09:45:20;2.65;;;1.35;;
75639;SDS011;64233;51.486;6.332;2023-03-04T09:47:49;2.17;;;0.82;;
75639;SDS011;64233;51.486;6.332;2023-03-04T09:50:17;1.33;;;0.85;;
75639;SDS011;64233;51.486;6.332;2023-03-04T09:55:41;2.42;;;1.08;;
75639;SDS011;64233;51.486;6.332;2023-03-04T10:06:16;2.20;;;0.90;;
75639;SDS011;64233;51.486;6.332;2023-03-04T10:09:00;6.20;;;1.23;;
75639;SDS011;64233;51.486;6.332;2023-03-04T10:11:33;1.60;;;0.88;;
75639;SDS011;64233;51.486;6.332;2023-03-04T10:22:34;1.38;;;1.13;;
75639;SDS011;64233;51.486;6.332;2023-03-04T10:25:25;1.95;;;0.82;;
75639;SDS011;64233;51.486;6.332;2023-03-04T10:33:20;2.08;;;0.90;;
75639;SDS011;64233;51.486;6.332;2023-03-04T10:36:03;2.63;;;1.38;;
75639;SDS011;64233;51.486;6.332;2023-03-04T10:38:30;3.03;;;0.80;;
75639;SDS011;64233;51.486;6.332;2023-03-04T10:41:01;4.63;;;1.13;;
75639;SDS011;64233;51.486;6.332;2023-03-04T10:43:37;1.23;;;0.95;;
75639;SDS011;64233;51.486;6.332;2023-03-04T10:46:02;0.82;;;0.73;;
75639;SDS011;64233;51.486;6.332;2023-03-04T10:48:29;1.10;;;0.75;;
75639;SDS011;64233;51.486;6.332;2023-03-04T10:51:09;3.85;;;1.30;;
75639;SDS011;64233;51.486;6.332;2023-03-04T11:04:55;1.63;;;1.10;;
75639;SDS011;64233;51.486;6.332;2023-03-04T11:07:43;4.88;;;1.58;;
75639;SDS011;64233;51.486;6.332;2023-03-04T11:10:22;3.17;;;0.82;;
75639;SDS011;64233;51.486;6.332;2023-03-04T11:13:12;2.13;;;1.20;;
75639;SDS011;64233;51.486;6.332;2023-03-04T11:16:02;0.98;;;0.77;;
75639;SDS011;64233;51.486;6.332;2023-03-04T11:18:39;3.38;;;0.95;;
75639;SDS011;64233;51.486;6.332;2023-03-04T11:21:05;2.95;;;1.35;;
75639;SDS011;64233;51.486;6.332;2023-03-04T11:26:15;3.58;;;0.93;;
75639;SDS011;64233;51.486;6.332;2023-03-04T11:28:46;2.50;;;1.60;;
75639;SDS011;64233;51.486;6.332;2023-03-04T11:31:22;4.73;;;0.97;;
75639;SDS011;64233;51.486;6.332;2023-03-04T11:33:54;1.48;;;1.30;;
75639;SDS011;64233;51.486;6.332;2023-03-04T11:36:34;2.25;;;1.13;;
75639;SDS011;64233;51.486;6.332;2023-03-04T11:39:02;3.75;;;1.23;;
75639;SDS011;64233;51.486;6.332;2023-03-04T11:41:34;1.48;;;0.80;;
75639;SDS011;64233;51.486;6.332;2023-03-04T11:44:04;1.52;;;1.02;;
75639;SDS011;64233;51.486;6.332;2023-03-04T11:55:04;4.68;;;1.42;;
75639;SDS011;64233;51.486;6.332;2023-03-04T12:01:06;1.05;;;0.70;;
75639;SDS011;64233;51.486;6.332;2023-03-04T12:06:13;0.55;;;0.55;;
75639;SDS011;64233;51.486;6.332;2023-03-04T12:11:23;5.70;;;0.77;;
75639;SDS011;64233;51.486;6.332;2023-03-04T12:22:50;1.63;;;0.90;;
75639;SDS011;64233;51.486;6.332;2023-03-04T12:44:17;1.13;;;0.88;;
75639;SDS011;64233;51.486;6.332;2023-03-04T12:49:52;1.52;;;1.42;;
75639;SDS011;64233;51.486;6.332;2023-03-04T12:52:39;3.60;;;0.88;;
75639;SDS011;64233;51.486;6.332;2023-03-04T12:55:15;1.00;;;0.73;;
75639;SDS011;64233;51.486;6.332;2023-03-04T12:57:45;0.93;;;0.80;;
75639;SDS011;64233;51.486;6.332;2023-03-04T13:00:39;0.85;;;0.70;;
75639;SDS011;64233;51.486;6.332;2023-03-04T13:03:20;1.77;;;0.77;;
75639;SDS011;64233;51.486;6.332;2023-03-04T13:14:05;1.70;;;0.90;;
75639;SDS011;64233;51.486;6.332;2023-03-04T13:43:56;1.38;;;0.70;;
75639;SDS011;64233;51.486;6.332;2023-03-04T13:46:44;0.98;;;0.80;;
75639;SDS011;64233;51.486;6.332;2023-03-04T13:49:15;1.38;;;0.90;;
75639;SDS011;64233;51.486;6.332;2023-03-04T13:51:45;0.70;;;0.70;;
75639;SDS011;64233;51.486;6.332;2023-03-04T13:56:39;5.60;;;1.90;;
75639;SDS011;64233;51.486;6.332;2023-03-04T14:04:21;5.80;;;1.05;;
75639;SDS011;64233;51.486;6.332;2023-03-04T14:06:49;2.50;;;0.88;;
75639;SDS011;64233;51.486;6.332;2023-03-04T14:09:29;1.17;;;1.02;;
75639;SDS011;64233;51.486;6.332;2023-03-04T14:11:57;2.20;;;0.88;;
75639;SDS011;64233;51.486;6.332;2023-03-04T14:14:27;2.05;;;1.20;;
75639;SDS011;64233;51.486;6.332;2023-03-04T14:16:56;1.38;;;1.10;;
75639;SDS011;64233;51.486;6.332;2023-03-04T14:19:30;1.42;;;0.98;;
75639;SDS011;64233;51.486;6.332;2023-03-04T14:22:02;2.08;;;1.10;;
75639;SDS011;64233;51.486;6.332;2023-03-04T14:24:54;1.13;;;1.00;;
75639;SDS011;64233;51.486;6.332;2023-03-04T14:27:24;2.33;;;1.20;;
75639;SDS011;64233;51.486;6.332;2023-03-04T14:29:56;6.28;;;1.77;;
75639;SDS011;64233;51.486;6.332;2023-03-04T14:32:24;2.05;;;1.48;;
75639;SDS011;64233;51.486;6.332;2023-03-04T14:34:51;3.15;;;1.40;;
75639;SDS011;64233;51.486;6.332;2023-03-04T14:37:42;1.48;;;1.33;;
75639;SDS011;64233;51.486;6.332;2023-03-04T14:40:17;1.25;;;1.15;;
75639;SDS011;64233;51.486;6.332;2023-03-04T14:42:46;0.90;;;0.82;;
75639;SDS011;64233;51.486;6.332;2023-03-04T14:45:13;2.78;;;0.80;;
75639;SDS011;64233;51.486;6.332;2023-03-04T14:47:41;2.20;;;0.70;;
75639;SDS011;64233;51.486;6.332;2023-03-04T14:50:18;3.63;;;0.63;;
75639;SDS011;64233;51.486;6.332;2023-03-04T14:52:45;1.38;;;0.85;;
75639;SDS011;64233;51.486;6.332;2023-03-04T14:57:47;7.18;;;0.85;;
75639;SDS011;64233;51.486;6.332;2023-03-04T15:00:25;0.80;;;0.77;;
75639;SDS011;64233;51.486;6.332;2023-03-04T15:02:54;1.67;;;0.77;;
75639;SDS011;64233;51.486;6.332;2023-03-04T15:05:28;1.95;;;1.08;;
75639;SDS011;64233;51.486;6.332;2023-03-04T15:07:55;3.85;;;0.73;;
75639;SDS011;64233;51.486;6.332;2023-03-04T15:10:23;9.05;;;0.80;;
75639;SDS011;64233;51.486;6.332;2023-03-04T15:12:56;2.08;;;0.88;;
75639;SDS011;64233;51.486;6.332;2023-03-04T15:15:31;8.13;;;1.00;;
75639;SDS011;64233;51.486;6.332;2023-03-04T15:18:26;1.17;;;0.80;;
75639;SDS011;64233;51.486;6.332;2023-03-04T15:23:48;11.98;;;1.27;;
75639;SDS011;64233;51.486;6.332;2023-03-04T15:26:13;2.08;;;0.90;;
75639;SDS011;64233;51.486;6.332;2023-03-04T15:28:39;2.13;;;1.13;;
75639;SDS011;64233;51.486;6.332;2023-03-04T15:31:06;1.55;;;0.98;;
75639;SDS011;64233;51.486;6.332;2023-03-04T15:33:41;4.63;;;1.10;;
75639;SDS011;64233;51.486;6.332;2023-03-04T15:36:08;3.58;;;1.10;;
75639;SDS011;64233;51.486;6.332;2023-03-04T15:38:39;3.30;;;0.73;;
75639;SDS011;64233;51.486;6.332;2023-03-04T15:41:05;2.92;;;0.95;;
75639;SDS011;64233;51.486;6.332;2023-03-04T15:43:30;1.13;;;0.60;;
75639;SDS011;64233;51.486;6.332;2023-03-04T15:45:55;0.88;;;0.70;;
75639;SDS011;64233;51.486;6.332;2023-03-04T15:48:21;2.20;;;1.80;;
75639;SDS011;64233;51.486;6.332;2023-03-04T15:50:56;1.10;;;0.85;;
75639;SDS011;64233;51.486;6.332;2023-03-04T15:56:31;3.13;;;1.67;;
75639;SDS011;64233;51.486;6.332;2023-03-04T15:58:58;3.80;;;1.70;;
75639;SDS011;64233;51.486;6.332;2023-03-04T16:01:27;1.92;;;1.30;;
75639;SDS011;64233;51.486;6.332;2023-03-04T16:03:52;7.10;;;1.30;;
75639;SDS011;64233;51.486;6.332;2023-03-04T16:06:18;1.27;;;0.55;;
75639;SDS011;64233;51.486;6.332;2023-03-04T16:08:45;5.35;;;1.40;;
75639;SDS011;64233;51.486;6.332;2023-03-04T16:11:16;1.98;;;0.80;;
75639;SDS011;64233;51.486;6.332;2023-03-04T16:13:44;2.58;;;0.85;;
75639;SDS011;64233;51.486;6.332;2023-03-04T16:16:10;3.83;;;1.33;;
75639;SDS011;64233;51.486;6.332;2023-03-04T16:18:36;4.13;;;0.98;;
75639;SDS011;64233;51.486;6.332;2023-03-04T16:21:02;5.13;;;1.02;;
75639;SDS011;64233;51.486;6.332;2023-03-04T16:23:28;4.97;;;0.95;;
75639;SDS011;64233;51.486;6.332;2023-03-04T16:25:59;4.45;;;1.27;;
75639;SDS011;64233;51.486;6.332;2023-03-04T16:28:25;3.47;;;0.70;;
75639;SDS011;64233;51.486;6.332;2023-03-04T16:30:50;5.50;;;1.27;;
75639;SDS011;64233;51.486;6.332;2023-03-04T16:33:15;2.20;;;1.45;;
75639;SDS011;64233;51.486;6.332;2023-03-04T16:35:41;5.95;;;1.10;;
75639;SDS011;64233;51.486;6.332;2023-03-04T16:38:41;5.50;;;1.00;;
75639;SDS011;64233;51.486;6.332;2023-03-04T16:40:59;2.35;;;1.10;;
75639;SDS011;64233;51.486;6.332;2023-03-04T16:43:26;2.05;;;0.95;;
75639;SDS011;64233;51.486;6.332;2023-03-04T16:45:52;8.13;;;1.20;;
75639;SDS011;64233;51.486;6.332;2023-03-04T16:48:17;4.32;;;0.90;;
75639;SDS011;64233;51.486;6.332;2023-03-04T16:50:44;4.38;;;1.15;;
75639;SDS011;64233;51.486;6.332;2023-03-04T16:53:15;5.50;;;1.35;;
75639;SDS011;64233;51.486;6.332;2023-03-04T16:55:47;2.20;;;0.75;;
75639;SDS011;64233;51.486;6.332;2023-03-04T16:58:18;5.53;;;1.33;;
75639;SDS011;64233;51.486;6.332;2023-03-04T17:00:50;4.32;;;1.50;;
75639;SDS011;64233;51.486;6.332;2023-03-04T17:03:15;1.10;;;0.73;;
75639;SDS011;64233;51.486;6.332;2023-03-04T17:05:41;8.15;;;1.48;;
75639;SDS011;64233;51.486;6.332;2023-03-04T17:08:08;4.60;;;1.02;;
75639;SDS011;64233;51.486;6.332;2023-03-04T17:10:33;2.92;;;1.13;;
75639;SDS011;64233;51.486;6.332;2023-03-04T17:12:59;5.68;;;1.10;;
75639;SDS011;64233;51.486;6.332;2023-03-04T17:15:24;4.93;;;1.60;;